createdAt,value
2018-08-13T00:01:18.055Z,19.10
2018-08-13T00:03:46.498Z,19.10
2018-08-13T00:06:15.138Z,19.10
2018-08-13T00:08:43.550Z,19.00
2018-08-13T00:11:12.003Z,19.00
2018-08-13T00:13:40.463Z,18.90
2018-08-13T00:16:08.951Z,18.90
2018-08-13T00:18:37.391Z,18.90
2018-08-13T00:21:05.863Z,18.90
2018-08-13T00:23:34.311Z,18.90
2018-08-13T00:26:02.846Z,18.90
2018-08-13T00:28:31.267Z,19.00
2018-08-13T00:30:59.883Z,19.00
2018-08-13T00:33:29.214Z,19.00
2018-08-13T00:35:58.544Z,19.00
2018-08-13T00:38:27.089Z,19.00
2018-08-13T00:40:55.550Z,19.00
2018-08-13T00:43:24.059Z,19.00
2018-08-13T00:45:52.499Z,18.90
2018-08-13T00:48:20.907Z,18.90
2018-08-13T00:50:49.763Z,18.90
2018-08-13T00:53:18.134Z,18.90
2018-08-13T00:55:46.480Z,18.90
2018-08-13T00:58:14.877Z,18.90
2018-08-13T01:00:43.219Z,18.90
2018-08-13T01:03:11.599Z,18.90
2018-08-13T01:05:39.970Z,18.90
2018-08-13T01:08:08.363Z,18.90
2018-08-13T01:10:36.731Z,18.80
2018-08-13T01:13:05.220Z,18.80
2018-08-13T01:15:33.591Z,18.80
2018-08-13T01:18:08.439Z,18.80
2018-08-13T01:20:36.786Z,18.80
2018-08-13T01:23:05.167Z,18.80
2018-08-13T01:25:33.531Z,18.80
2018-08-13T01:28:01.905Z,18.70
2018-08-13T01:30:30.278Z,18.70
2018-08-13T01:32:58.673Z,18.70
2018-08-13T01:35:27.047Z,18.70
2018-08-13T01:37:55.414Z,18.70
2018-08-13T01:40:23.743Z,18.70
2018-08-13T01:42:52.122Z,18.70
2018-08-13T01:45:20.495Z,18.70
2018-08-13T01:47:48.950Z,18.70
2018-08-13T01:50:17.378Z,18.60
2018-08-13T01:52:45.828Z,18.70
2018-08-13T01:55:14.332Z,18.60
2018-08-13T01:57:42.762Z,18.70
2018-08-13T02:00:14.987Z,18.70
2018-08-13T02:02:43.456Z,18.70
2018-08-13T02:05:11.927Z,18.70
2018-08-13T02:07:40.348Z,18.70
2018-08-13T02:10:10.710Z,18.70
2018-08-13T02:12:39.478Z,18.70
2018-08-13T02:15:08.059Z,18.70
2018-08-13T02:17:36.595Z,18.70
2018-08-13T02:20:06.847Z,18.70
2018-08-13T02:22:35.470Z,18.60
2018-08-13T02:25:04.550Z,18.60
2018-08-13T02:27:32.987Z,18.70
2018-08-13T02:30:01.418Z,18.70
2018-08-13T02:32:29.847Z,18.70
2018-08-13T02:34:58.316Z,18.70
2018-08-13T02:37:26.779Z,18.80
2018-08-13T02:39:55.240Z,18.80
2018-08-13T02:42:23.706Z,18.80
2018-08-13T02:44:52.132Z,18.80
2018-08-13T02:47:20.615Z,18.80
2018-08-13T02:49:49.007Z,18.80
2018-08-13T02:54:52.250Z,18.70
2018-08-13T02:57:20.671Z,18.70
2018-08-13T02:59:49.100Z,18.80
2018-08-13T03:02:17.522Z,18.70
2018-08-13T03:04:45.999Z,18.70
2018-08-13T03:07:14.395Z,18.80
2018-08-13T03:09:42.847Z,18.80
2018-08-13T03:12:11.256Z,18.90
2018-08-13T03:14:39.699Z,18.90
2018-08-13T03:17:08.107Z,18.90
2018-08-13T03:19:36.560Z,18.90
2018-08-13T03:22:05.027Z,18.90
2018-08-13T03:27:08.227Z,18.90
2018-08-13T03:29:36.682Z,19.00
2018-08-13T03:32:05.135Z,19.00
2018-08-13T03:34:33.575Z,18.90
2018-08-13T03:37:02.003Z,19.00
2018-08-13T03:39:30.435Z,19.00
2018-08-13T03:41:58.858Z,19.00
2018-08-13T03:44:27.451Z,19.10
2018-08-13T03:46:55.847Z,19.20
2018-08-13T03:49:24.211Z,19.20
2018-08-13T03:51:52.638Z,19.20
2018-08-13T03:54:21.048Z,19.30
2018-08-13T03:56:49.375Z,19.30
2018-08-13T03:59:17.735Z,19.40
2018-08-13T04:01:46.090Z,19.40
2018-08-13T04:04:14.450Z,19.30
2018-08-13T04:06:42.928Z,19.30
2018-08-13T04:09:11.308Z,19.20
2018-08-13T04:11:39.888Z,19.20
2018-08-13T04:14:09.019Z,19.20
2018-08-13T04:16:37.887Z,19.10
2018-08-13T04:19:06.959Z,19.10
2018-08-13T04:21:35.291Z,19.10
2018-08-13T04:24:03.666Z,19.20
2018-08-13T04:26:32.011Z,19.10
2018-08-13T04:29:00.375Z,19.10
2018-08-13T04:31:28.702Z,19.10
2018-08-13T04:33:57.071Z,19.10
2018-08-13T04:36:25.406Z,19.10
2018-08-13T04:38:53.772Z,19.20
2018-08-13T04:41:23.039Z,19.10
2018-08-13T04:43:53.179Z,19.10
2018-08-13T04:46:22.944Z,19.10
2018-08-13T04:48:53.143Z,19.10
2018-08-13T04:51:22.116Z,19.10
2018-08-13T04:53:52.216Z,19.10
2018-08-13T04:56:22.239Z,19.00
2018-08-13T04:58:52.335Z,18.90
2018-08-13T05:01:22.359Z,18.90
2018-08-13T05:03:52.228Z,18.90
2018-08-13T05:06:22.098Z,18.80
2018-08-13T05:08:52.262Z,18.80
2018-08-13T05:11:21.433Z,18.60
2018-08-13T05:13:49.879Z,18.50
2018-08-13T05:16:18.237Z,18.20
2018-08-13T05:18:46.646Z,17.90
2018-08-13T05:21:15.040Z,17.90
2018-08-13T05:23:43.973Z,17.80
2018-08-13T05:26:13.315Z,17.80
2018-08-13T05:28:41.647Z,17.80
2018-08-13T05:31:09.999Z,17.80
2018-08-13T05:33:38.342Z,17.80
2018-08-13T05:36:06.911Z,17.80
2018-08-13T05:38:35.258Z,17.80
2018-08-13T05:41:03.652Z,17.80
2018-08-13T05:43:32.055Z,17.80
2018-08-13T05:46:00.516Z,17.70
2018-08-13T05:48:28.927Z,17.60
2018-08-13T05:50:57.299Z,17.70
2018-08-13T05:53:25.644Z,17.70
2018-08-13T05:55:54.014Z,17.70
2018-08-13T05:58:22.342Z,17.70
2018-08-13T06:00:50.710Z,17.70
2018-08-13T06:03:19.065Z,17.50
2018-08-13T06:05:47.450Z,17.60
2018-08-13T06:08:15.819Z,17.60
2018-08-13T06:10:44.176Z,17.50
2018-08-13T06:13:18.915Z,17.60
2018-08-13T06:15:47.298Z,17.60
2018-08-13T06:18:15.646Z,17.60
2018-08-13T06:20:44.005Z,17.40
2018-08-13T06:23:12.347Z,17.30
2018-08-13T06:25:40.724Z,17.20
2018-08-13T06:28:09.167Z,17.20
2018-08-13T06:30:37.519Z,17.20
2018-08-13T06:33:06.379Z,17.20
2018-08-13T06:35:34.771Z,17.20
2018-08-13T06:38:03.143Z,17.10
2018-08-13T06:40:31.487Z,17.00
2018-08-13T06:42:59.822Z,17.00
2018-08-13T06:45:28.159Z,16.90
2018-08-13T06:47:56.576Z,16.70
2018-08-13T06:50:25.016Z,16.70
2018-08-13T06:52:53.455Z,16.80
2018-08-13T06:55:21.900Z,16.70
2018-08-13T06:57:50.342Z,16.70
2018-08-13T07:00:18.805Z,16.70
2018-08-13T07:02:47.211Z,16.70
2018-08-13T07:05:15.691Z,16.70
2018-08-13T07:07:44.098Z,16.90
2018-08-13T07:10:13.813Z,17.00
2018-08-13T07:12:44.250Z,17.00
2018-08-13T07:15:13.495Z,17.00
2018-08-13T07:17:41.950Z,17.20
2018-08-13T07:20:13.475Z,17.20
2018-08-13T07:22:42.188Z,17.30
2018-08-13T07:25:10.951Z,17.30
2018-08-13T07:27:40.359Z,17.30
2018-08-13T07:30:10.819Z,17.40
2018-08-13T07:32:39.294Z,17.40
2018-08-13T07:35:08.202Z,17.40
2018-08-13T07:37:36.625Z,17.40
2018-08-13T07:40:07.147Z,17.40
2018-08-13T07:42:35.561Z,17.40
2018-08-13T07:45:04.971Z,17.50
2018-08-13T07:47:33.366Z,17.50
2018-08-13T07:50:01.740Z,17.40
2018-08-13T07:52:30.087Z,17.50
2018-08-13T07:54:58.526Z,17.50
2018-08-13T07:57:26.897Z,17.50
2018-08-13T07:59:55.282Z,17.40
2018-08-13T08:02:23.619Z,17.40
2018-08-13T08:04:51.991Z,17.40
2018-08-13T08:07:20.366Z,17.40
2018-08-13T08:09:48.752Z,17.30
2018-08-13T08:12:17.198Z,17.40
2018-08-13T08:14:45.679Z,17.50
2018-08-13T08:17:13.986Z,17.70
2018-08-13T08:19:42.355Z,17.70
2018-08-13T08:22:10.735Z,17.70
2018-08-13T08:24:39.356Z,17.70
2018-08-13T08:27:08.196Z,17.70
2018-08-13T08:29:36.566Z,17.70
2018-08-13T08:32:04.927Z,17.70
2018-08-13T08:34:33.343Z,17.70
2018-08-13T08:37:01.710Z,17.70
2018-08-13T08:39:30.056Z,17.70
2018-08-13T08:41:58.491Z,17.70
2018-08-13T08:44:26.853Z,17.70
2018-08-13T08:46:55.417Z,17.70
2018-08-13T08:49:23.875Z,17.70
2018-08-13T08:51:52.335Z,17.70
2018-08-13T08:54:20.767Z,17.80
2018-08-13T08:56:49.207Z,18.00
2018-08-13T08:59:17.639Z,18.10
2018-08-13T09:01:46.107Z,18.00
2018-08-13T09:04:14.559Z,18.10
2018-08-13T09:06:43.055Z,18.10
2018-08-13T09:09:13.195Z,18.20
2018-08-13T09:11:42.342Z,18.30
2018-08-13T09:14:10.910Z,18.30
2018-08-13T09:16:40.664Z,18.40
2018-08-13T09:19:20.571Z,18.50
2018-08-13T09:21:51.631Z,18.60
2018-08-13T09:24:31.409Z,18.80
2018-08-13T09:27:11.324Z,18.80
2018-08-13T09:29:51.092Z,18.80
2018-08-13T09:33:29.507Z,18.90
2018-08-13T09:35:57.995Z,18.90
2018-08-13T09:38:26.447Z,18.90
2018-08-13T09:41:01.368Z,18.80
2018-08-13T09:43:29.790Z,18.90
2018-08-13T09:45:58.208Z,19.00
2018-08-13T09:48:26.670Z,19.00
2018-08-13T09:50:55.227Z,19.10
2018-08-13T09:53:23.655Z,19.20
2018-08-13T09:55:52.102Z,19.20
2018-08-13T09:58:20.514Z,19.30
2018-08-13T10:00:54.356Z,19.20
2018-08-13T10:03:22.807Z,19.30
2018-08-13T10:05:51.236Z,19.30
2018-08-13T10:08:19.704Z,19.20
2018-08-13T10:10:48.160Z,19.30
2018-08-13T10:13:16.559Z,19.30
2018-08-13T10:15:45.003Z,19.30
2018-08-13T10:18:13.464Z,19.30
2018-08-13T10:20:41.934Z,19.30
2018-08-13T10:23:10.343Z,19.20
2018-08-13T10:25:38.779Z,19.00
2018-08-13T10:28:07.286Z,18.80
2018-08-13T10:30:35.719Z,18.80
2018-08-13T10:33:04.222Z,18.60
2018-08-13T10:35:32.668Z,18.60
2018-08-13T10:38:02.768Z,18.50
2018-08-13T10:40:31.206Z,18.40
2018-08-13T10:42:59.679Z,18.40
2018-08-13T10:45:28.327Z,18.40
2018-08-13T10:47:56.824Z,18.40
2018-08-13T10:50:25.234Z,18.40
2018-08-13T10:52:53.696Z,18.50
2018-08-13T10:55:22.152Z,18.50
2018-08-13T10:57:50.597Z,18.50
2018-08-13T11:00:19.042Z,18.30
2018-08-13T11:02:47.515Z,18.30
2018-08-13T11:05:16.427Z,18.20
2018-08-13T11:07:44.984Z,18.30
2018-08-13T11:10:16.166Z,18.30
2018-08-13T11:12:45.371Z,18.30
2018-08-13T11:15:16.498Z,18.40
2018-08-13T11:17:45.125Z,18.40
2018-08-13T11:20:14.260Z,18.40
2018-08-13T11:22:43.317Z,18.50
2018-08-13T11:25:13.416Z,18.60
2018-08-13T11:27:42.110Z,18.60
2018-08-13T11:30:12.455Z,18.50
2018-08-13T11:32:40.970Z,18.40
2018-08-13T11:35:09.545Z,18.30
2018-08-13T11:37:38.014Z,18.40
2018-08-13T11:40:10.663Z,18.40
2018-08-13T11:42:39.395Z,18.50
2018-08-13T11:45:08.231Z,18.50
2018-08-13T11:47:37.244Z,18.50
2018-08-13T11:50:10.678Z,18.70
2018-08-13T11:52:39.416Z,18.70
2018-08-13T11:55:08.011Z,18.80
2018-08-13T11:57:36.443Z,18.90
2018-08-13T12:00:07.103Z,19.00
2018-08-13T12:02:35.720Z,19.00
2018-08-13T12:05:05.287Z,19.10
2018-08-13T12:07:33.718Z,19.20
2018-08-13T12:10:02.258Z,19.40
2018-08-13T12:12:30.679Z,19.70
2018-08-13T12:14:59.127Z,19.90
2018-08-13T12:17:27.588Z,20.00
2018-08-13T12:20:59.547Z,20.20
2018-08-13T12:23:27.977Z,20.40
2018-08-13T12:25:56.467Z,20.60
2018-08-13T12:28:24.907Z,20.70
2018-08-13T12:30:53.359Z,20.80
2018-08-13T12:33:21.786Z,20.80
2018-08-13T12:35:50.256Z,20.70
2018-08-13T12:38:18.701Z,20.80
2018-08-13T12:40:47.144Z,20.80
2018-08-13T12:43:15.608Z,20.80
2018-08-13T12:45:44.040Z,20.90
2018-08-13T12:48:12.523Z,20.80
2018-08-13T12:50:40.965Z,20.80
2018-08-13T12:53:09.439Z,20.90
2018-08-13T12:55:37.880Z,20.90
2018-08-13T12:58:06.805Z,20.90
2018-08-13T13:00:35.421Z,20.90
2018-08-13T13:03:03.912Z,20.80
2018-08-13T13:05:32.347Z,20.50
2018-08-13T13:08:00.811Z,20.10
2018-08-13T13:10:29.290Z,20.00
2018-08-13T13:12:57.751Z,20.00
2018-08-13T13:15:26.175Z,20.00
2018-08-13T13:17:54.574Z,20.10
2018-08-13T13:20:23.649Z,20.30
2018-08-13T13:22:52.482Z,20.30
2018-08-13T13:25:21.441Z,20.40
2018-08-13T13:27:49.890Z,20.40
2018-08-13T13:30:19.313Z,20.40
2018-08-13T13:32:47.998Z,20.50
2018-08-13T13:35:17.571Z,20.60
2018-08-13T13:37:46.059Z,20.80
2018-08-13T13:40:15.782Z,20.80
2018-08-13T13:42:44.255Z,20.90
2018-08-13T13:45:13.588Z,20.90
2018-08-13T13:47:41.955Z,20.90
2018-08-13T13:50:12.443Z,20.90
2018-08-13T13:52:40.763Z,20.80
2018-08-13T13:55:09.211Z,20.70
2018-08-13T13:57:37.642Z,20.60
2018-08-13T14:00:11.715Z,20.70
2018-08-13T14:02:40.048Z,20.70
2018-08-13T14:05:08.427Z,20.80
2018-08-13T14:07:36.794Z,20.90
2018-08-13T14:10:06.495Z,21.00
2018-08-13T14:12:41.676Z,21.10
2018-08-13T14:15:11.851Z,21.20
2018-08-13T14:17:40.534Z,21.20
2018-08-13T14:20:09.675Z,21.30
2018-08-13T14:22:38.218Z,21.40
2018-08-13T14:25:07.795Z,21.40
2018-08-13T14:27:36.323Z,21.40
2018-08-13T14:30:08.343Z,21.40
2018-08-13T14:32:36.823Z,21.40
2018-08-13T14:35:05.324Z,21.50
2018-08-13T14:37:33.839Z,21.50
2018-08-13T14:40:02.200Z,21.50
2018-08-13T14:42:30.559Z,21.60
2018-08-13T14:44:58.887Z,21.80
2018-08-13T14:47:27.326Z,21.80
2018-08-13T14:49:55.677Z,21.70
2018-08-13T14:52:24.067Z,21.70
2018-08-13T14:54:52.431Z,21.60
2018-08-13T14:57:20.802Z,21.60
2018-08-13T14:59:49.195Z,21.50
2018-08-13T15:02:17.547Z,21.50
2018-08-13T15:04:45.913Z,21.50
2018-08-13T15:07:14.259Z,21.30
2018-08-13T15:09:42.611Z,21.30
2018-08-13T15:12:11.004Z,21.20
2018-08-13T15:14:39.366Z,21.20
2018-08-13T15:17:07.754Z,21.10
2018-08-13T15:19:36.124Z,21.20
2018-08-13T15:22:04.523Z,21.10
2018-08-13T15:24:32.906Z,21.10
2018-08-13T15:27:02.928Z,21.20
2018-08-13T15:29:32.559Z,21.20
2018-08-13T15:32:03.393Z,21.20
2018-08-13T15:34:31.875Z,21.10
2018-08-13T15:37:00.344Z,21.20
2018-08-13T15:39:28.750Z,21.20
2018-08-13T15:41:57.126Z,21.10
2018-08-13T15:44:25.891Z,21.20
2018-08-13T15:46:54.278Z,21.20
2018-08-13T15:49:22.668Z,21.20
2018-08-13T15:51:51.044Z,21.40
2018-08-13T15:54:19.392Z,21.50
2018-08-13T15:56:47.775Z,21.60
2018-08-13T15:59:16.164Z,21.50
2018-08-13T16:01:45.403Z,21.50
2018-08-13T16:04:14.475Z,21.50
2018-08-13T16:06:43.122Z,21.50
2018-08-13T16:09:11.463Z,21.50
2018-08-13T16:11:39.811Z,21.50
2018-08-13T16:14:08.391Z,21.60
2018-08-13T16:16:36.796Z,21.60
2018-08-13T16:19:05.403Z,21.70
2018-08-13T16:21:33.935Z,21.70
2018-08-13T16:24:02.440Z,21.60
2018-08-13T16:26:30.847Z,21.60
2018-08-13T16:28:59.262Z,21.60
2018-08-13T16:31:27.592Z,21.50
2018-08-13T16:33:56.290Z,21.50
2018-08-13T16:36:25.202Z,21.50
2018-08-13T16:38:53.678Z,21.40
2018-08-13T16:41:22.736Z,21.30
2018-08-13T16:43:51.218Z,21.20
2018-08-13T16:46:19.563Z,21.20
2018-08-13T16:48:48.033Z,21.20
2018-08-13T16:51:16.557Z,21.00
2018-08-13T16:53:45.567Z,21.00
2018-08-13T16:56:14.567Z,21.00
2018-08-13T16:58:43.427Z,20.80
2018-08-13T17:01:12.934Z,20.70
2018-08-13T17:03:41.447Z,20.60
2018-08-13T17:06:09.923Z,20.70
2018-08-13T17:08:38.399Z,20.70
2018-08-13T17:11:06.787Z,20.70
2018-08-13T17:13:35.290Z,20.80
2018-08-13T17:16:03.766Z,20.70
2018-08-13T17:18:32.235Z,20.70
2018-08-13T17:21:00.723Z,20.70
2018-08-13T17:23:29.133Z,20.60
2018-08-13T17:25:57.622Z,20.80
2018-08-13T17:28:26.084Z,20.80
2018-08-13T17:30:54.549Z,20.70
2018-08-13T17:33:23.039Z,20.60
2018-08-13T17:35:51.487Z,20.60
2018-08-13T17:38:19.951Z,20.60
2018-08-13T17:40:48.455Z,20.60
2018-08-13T17:43:17.119Z,20.60
2018-08-13T17:45:45.492Z,20.50
2018-08-13T17:48:13.978Z,20.60
2018-08-13T17:50:42.427Z,20.70
2018-08-13T17:53:11.528Z,20.70
2018-08-13T17:55:39.997Z,20.70
2018-08-13T17:58:08.495Z,20.80
2018-08-13T18:00:36.953Z,20.80
2018-08-13T18:03:05.678Z,20.80
2018-08-13T18:05:34.163Z,20.80
2018-08-13T18:08:02.643Z,20.90
2018-08-13T18:10:32.862Z,20.90
2018-08-13T18:13:02.900Z,20.90
2018-08-13T18:15:31.463Z,20.80
2018-08-13T18:17:59.995Z,20.80
2018-08-13T18:20:28.373Z,20.80
2018-08-13T18:22:56.750Z,20.60
2018-08-13T18:25:25.095Z,20.60
2018-08-13T18:27:53.860Z,20.60
2018-08-13T18:30:24.545Z,20.50
2018-08-13T18:32:53.862Z,20.50
2018-08-13T18:35:22.299Z,20.40
2018-08-13T18:37:50.700Z,20.30
2018-08-13T18:40:23.236Z,20.20
2018-08-13T18:42:51.704Z,20.10
2018-08-13T18:45:20.051Z,20.10
2018-08-13T18:47:49.264Z,20.20
2018-08-13T18:50:19.010Z,20.00
2018-08-13T18:52:47.556Z,19.90
2018-08-13T18:55:17.362Z,19.80
2018-08-13T18:57:46.066Z,19.80
2018-08-13T19:00:18.430Z,19.80
2018-08-13T19:02:46.918Z,19.70
2018-08-13T19:05:16.550Z,19.60
2018-08-13T19:07:45.661Z,19.60
2018-08-13T19:10:15.004Z,19.60
2018-08-13T19:12:43.422Z,19.50
2018-08-13T19:15:16.111Z,19.50
2018-08-13T19:17:44.690Z,19.50
2018-08-13T19:20:13.983Z,19.40
2018-08-13T19:22:43.114Z,19.40
2018-08-13T19:25:20.667Z,19.40
2018-08-13T19:27:49.103Z,19.40
2018-08-13T19:30:18.435Z,19.30
2018-08-13T19:32:47.738Z,19.20
2018-08-13T19:35:16.284Z,19.20
2018-08-13T19:37:45.098Z,19.20
2018-08-13T19:40:15.644Z,19.20
2018-08-13T19:42:44.740Z,19.20
2018-08-13T19:45:14.518Z,19.20
2018-08-13T19:47:43.218Z,19.30
2018-08-13T19:50:11.934Z,19.30
2018-08-13T19:52:41.926Z,19.20
2018-08-13T19:55:10.771Z,19.20
2018-08-13T19:57:39.700Z,19.20
2018-08-13T20:00:12.977Z,19.20
2018-08-13T20:02:41.430Z,19.30
2018-08-13T20:05:10.047Z,19.20
2018-08-13T20:07:39.028Z,19.20
2018-08-13T20:10:10.227Z,19.10
2018-08-13T20:12:38.599Z,19.10
2018-08-13T20:15:07.040Z,19.10
2018-08-13T20:17:36.715Z,19.10
2018-08-13T20:20:09.181Z,19.00
2018-08-13T20:22:37.759Z,18.90
2018-08-13T20:25:07.546Z,18.90
2018-08-13T20:27:36.089Z,18.90
2018-08-13T20:30:05.784Z,18.80
2018-08-13T20:32:34.188Z,18.70
2018-08-13T20:35:02.672Z,18.60
2018-08-13T20:37:31.071Z,18.60
2018-08-13T20:39:59.536Z,18.50
2018-08-13T20:42:28.086Z,18.40
2018-08-13T20:44:56.487Z,18.40
2018-08-13T20:47:25.170Z,18.40
2018-08-13T20:49:53.663Z,18.50
2018-08-13T20:52:23.773Z,18.40
2018-08-13T20:54:52.191Z,18.40
2018-08-13T20:57:20.572Z,18.40
2018-08-13T20:59:49.788Z,18.40
2018-08-13T21:02:18.131Z,18.40
2018-08-13T21:04:46.507Z,18.40
2018-08-13T21:07:14.858Z,18.40
2018-08-13T21:09:43.431Z,18.30
2018-08-13T21:12:11.810Z,18.30
2018-08-13T21:14:40.204Z,18.30
2018-08-13T21:17:08.578Z,18.30
2018-08-13T21:19:37.107Z,18.20
2018-08-13T21:22:05.495Z,18.10
2018-08-13T21:24:37.284Z,18.10
2018-08-13T21:27:05.782Z,18.10
2018-08-13T21:29:34.147Z,18.10
2018-08-13T21:32:02.528Z,18.00
2018-08-13T21:34:30.895Z,17.90
2018-08-13T21:36:59.811Z,17.80
2018-08-13T21:39:28.162Z,17.80
2018-08-13T21:41:56.563Z,17.90
2018-08-13T21:44:24.935Z,17.90
2018-08-13T21:46:53.388Z,17.90
2018-08-13T21:49:21.832Z,17.90
2018-08-13T21:51:50.252Z,18.00
2018-08-13T21:54:18.743Z,18.00
2018-08-13T21:56:47.183Z,17.90
2018-08-13T21:59:15.641Z,17.90
2018-08-13T22:01:47.368Z,17.80
2018-08-13T22:04:17.283Z,17.70
2018-08-13T22:06:46.011Z,17.70
2018-08-13T22:09:14.410Z,17.70
2018-08-13T22:11:42.878Z,17.60
2018-08-13T22:14:11.444Z,17.60
2018-08-13T22:16:39.931Z,17.70
2018-08-13T22:19:09.338Z,17.70
2018-08-13T22:21:37.839Z,17.70
2018-08-13T22:24:17.418Z,17.70
2018-08-13T22:26:45.872Z,17.70
2018-08-13T22:29:14.281Z,17.80
2018-08-13T22:31:42.900Z,17.80
2018-08-13T22:34:11.374Z,17.80
2018-08-13T22:36:39.891Z,17.80
2018-08-13T22:39:08.975Z,17.80
2018-08-13T22:41:37.598Z,17.80
2018-08-13T22:44:06.088Z,17.80
2018-08-13T22:46:34.933Z,17.90
2018-08-13T22:49:03.461Z,17.80
2018-08-13T22:51:31.887Z,17.80
2018-08-13T22:54:00.327Z,17.90
2018-08-13T22:56:28.879Z,17.80
2018-08-13T22:58:57.235Z,17.80
2018-08-13T23:01:25.631Z,17.90
2018-08-13T23:03:54.235Z,17.90
2018-08-13T23:06:22.587Z,18.00
2018-08-13T23:08:50.947Z,18.00
2018-08-13T23:11:19.360Z,18.00
2018-08-13T23:13:47.720Z,18.00
2018-08-13T23:16:16.112Z,18.00
2018-08-13T23:18:44.479Z,18.00
2018-08-13T23:21:12.850Z,18.10
2018-08-13T23:23:41.187Z,18.00
2018-08-13T23:26:09.544Z,18.00
2018-08-13T23:28:37.887Z,17.90
2018-08-13T23:31:06.320Z,17.90
2018-08-13T23:33:34.659Z,17.90
2018-08-13T23:36:03.083Z,17.80
2018-08-13T23:38:31.422Z,17.80
2018-08-13T23:40:59.801Z,17.80
2018-08-13T23:43:28.175Z,17.80
2018-08-13T23:45:56.568Z,17.70
2018-08-13T23:48:24.992Z,17.80
2018-08-13T23:50:53.412Z,17.80
2018-08-13T23:53:21.796Z,17.90
2018-08-13T23:55:50.169Z,17.90
2018-08-13T23:58:18.562Z,17.90
